Time;durP1;ratioP1;P1;durP2;ratioP2;P2;SDS_P1;SDS_P2;PMS_P1;PMS_P2;Temp;Humidity;BMP_temperature;BMP_pressure;BME280_temperature;BME280_humidity;BME280_pressure;Samples;Min_cycle;Max_cycle;Signal;HPM_P1;HPM_P2
2023/10/23 00:02:38;;;;;;;15.90;7.50;;;;;;;7.34;100.00;100798.06;10465843;28;20132;-83
2023/10/23 00:07:38;;;;;;;60.03;13.13;;;;;;;7.23;100.00;100802.59;10483052;28;20044;-83
2023/10/23 00:12:39;;;;;;;33.42;10.32;;;;;;;7.11;100.00;100812.28;10482603;28;20135;-83
2023/10/23 00:17:39;;;;;;;21.35;11.60;;;;;;;7.04;100.00;100813.63;10465068;28;20127;-83
2023/10/23 00:22:40;;;;;;;21.17;8.68;;;;;;;7.07;100.00;100813.81;10448773;28;20063;-82
2023/10/23 00:27:40;;;;;;;28.20;9.98;;;;;;;7.02;100.00;100823.94;10462630;28;20051;-82
2023/10/23 00:32:41;;;;;;;29.40;9.88;;;;;;;6.93;100.00;100825.97;10483835;28;20044;-82
2023/10/23 00:37:42;;;;;;;36.47;13.27;;;;;;;6.97;100.00;100827.94;10483218;28;20036;-82
2023/10/23 00:42:42;;;;;;;393.20;55.67;;;;;;;6.87;100.00;100826.50;10465738;28;20127;-81
2023/10/23 00:47:43;;;;;;;118.22;24.23;;;;;;;6.87;100.00;100830.78;10483374;28;20217;-84
2023/10/23 00:52:43;;;;;;;31.27;11.23;;;;;;;6.80;100.00;100831.22;10464667;28;20051;-83
2023/10/23 00:57:44;;;;;;;45.78;16.35;;;;;;;6.80;100.00;100832.13;10463695;28;20108;-83
2023/10/23 01:02:44;;;;;;;255.60;47.17;;;;;;;6.70;100.00;100830.63;10464953;28;20131;-82
2023/10/23 01:07:45;;;;;;;252.07;31.55;;;;;;;6.73;100.00;100835.16;10465871;28;20083;-82
2023/10/23 01:12:48;;;;;;;25.63;10.18;;;;;;;6.63;100.00;100840.56;10480597;28;20113;-83
2023/10/23 01:17:49;;;;;;;23.63;11.90;;;;;;;6.65;100.00;100837.25;10464826;28;20181;-83
2023/10/23 01:22:58;;;;;;;51.70;13.45;;;;;;;6.64;100.00;100835.44;10446871;28;20070;-83
2023/10/23 01:27:59;;;;;;;36.42;15.38;;;;;;;6.44;100.00;100823.81;10473725;28;20041;-82
2023/10/23 01:33:00;;;;;;;94.20;15.77;;;;;;;6.39;100.00;100820.00;10456954;28;20483;-83
2023/10/23 01:38:00;;;;;;;22.90;10.15;;;;;;;6.42;100.00;100830.59;10471108;28;20538;-82
2023/10/23 01:43:01;;;;;;;94.57;18.73;;;;;;;6.43;100.00;100833.28;10472592;28;20131;-83
2023/10/23 01:48:01;;;;;;;71.80;18.10;;;;;;;6.36;100.00;100832.81;10469921;28;20540;-83
2023/10/23 01:53:02;;;;;;;50.65;13.30;;;;;;;6.23;100.00;100833.72;10472339;28;20115;-82
2023/10/23 01:58:02;;;;;;;112.05;20.33;;;;;;;6.20;100.00;100834.44;10454992;28;20510;-82
2023/10/23 02:03:04;;;;;;;28.63;10.43;;;;;;;5.98;100.00;100837.28;10472489;28;20040;-81
2023/10/23 02:08:04;;;;;;;56.78;14.93;;;;;;;5.91;100.00;100837.66;10469677;28;20044;-82
2023/10/23 02:13:05;;;;;;;19.17;9.50;;;;;;;5.97;100.00;100836.38;10488383;28;20052;-81
2023/10/23 02:18:05;;;;;;;77.95;15.27;;;;;;;5.85;100.00;100831.28;10471686;28;20116;-82
2023/10/23 02:23:06;;;;;;;19.73;10.93;;;;;;;5.91;100.00;100829.88;10467957;28;20074;-83
2023/10/23 02:28:06;;;;;;;43.78;13.90;;;;;;;5.91;100.00;100835.06;10486753;28;20041;-82
2023/10/23 02:33:07;;;;;;;91.57;17.38;;;;;;;5.80;100.00;100848.25;10453885;28;20119;-82
2023/10/23 02:38:07;;;;;;;27.50;12.27;;;;;;;5.76;100.00;100848.84;10485720;28;20120;-83
2023/10/23 02:43:08;;;;;;;35.00;14.02;;;;;;;5.66;100.00;100843.81;10454166;28;20079;-83
2023/10/23 02:48:08;;;;;;;23.45;9.32;;;;;;;5.48;100.00;100844.38;10446885;28;20060;-82
2023/10/23 02:53:09;;;;;;;14.90;7.30;;;;;;;5.10;100.00;100843.56;10428741;28;20041;-83
2023/10/23 02:58:09;;;;;;;16.40;7.45;;;;;;;5.04;100.00;100842.25;10446458;28;20044;-83
2023/10/23 03:03:10;;;;;;;15.30;6.45;;;;;;;4.94;100.00;100851.97;10485105;28;20129;-83
2023/10/23 03:08:10;;;;;;;11.23;6.20;;;;;;;4.70;100.00;100854.63;10469742;28;20055;-83
2023/10/23 03:13:11;;;;;;;8.55;6.15;;;;;;;4.58;100.00;100845.09;10468673;28;20548;-82
2023/10/23 03:18:12;;;;;;;18.95;6.70;;;;;;;4.49;100.00;100850.50;10467838;28;20045;-82
2023/10/23 03:23:12;;;;;;;16.10;7.15;;;;;;;4.40;100.00;100856.84;10469166;28;20052;-82
2023/10/23 03:28:12;;;;;;;17.60;8.35;;;;;;;4.30;100.00;100843.13;10451919;28;20060;-82
2023/10/23 03:33:13;;;;;;;10.07;6.10;;;;;;;4.23;100.00;100842.66;10468770;28;20032;-82
2023/10/23 03:38:14;;;;;;;20.50;8.40;;;;;;;4.29;100.00;100854.25;10467768;28;20123;-82
2023/10/23 03:43:15;;;;;;;11.75;6.93;;;;;;;4.33;100.00;100862.34;10468219;28;20400;-82
2023/10/23 03:48:15;;;;;;;24.52;11.27;;;;;;;4.37;100.00;100871.28;10483385;28;20064;-83
2023/10/23 03:53:16;;;;;;;18.42;10.95;;;;;;;4.30;100.00;100869.91;10450263;28;20086;-82
2023/10/23 03:58:16;;;;;;;28.35;11.18;;;;;;;4.31;100.00;100876.00;10427927;28;20169;-82
2023/10/23 04:03:17;;;;;;;44.38;12.48;;;;;;;4.25;100.00;100882.53;10483743;28;20037;-82
2023/10/23 04:08:17;;;;;;;16.92;8.18;;;;;;;4.17;100.00;100881.09;10467951;28;20385;-82
2023/10/23 04:13:18;;;;;;;43.83;8.80;;;;;;;4.06;100.00;100888.03;10465928;28;20043;-82
2023/10/23 04:18:18;;;;;;;16.67;7.05;;;;;;;3.96;100.00;100882.97;10484150;28;20132;-82
2023/10/23 04:23:19;;;;;;;11.88;7.13;;;;;;;3.91;100.00;100889.50;10483118;28;20551;-82
2023/10/23 04:28:19;;;;;;;18.15;9.63;;;;;;;3.81;100.00;100885.31;10479751;28;20123;-81
2023/10/23 04:33:21;;;;;;;29.08;6.88;;;;;;;3.77;100.00;100881.59;10466120;28;20443;-81
2023/10/23 04:38:22;;;;;;;31.58;8.55;;;;;;;3.71;100.00;100875.94;10465893;28;20044;-82
2023/10/23 04:43:22;;;;;;;18.05;7.00;;;;;;;3.74;100.00;100868.41;10448493;28;20043;-82
2023/10/23 04:48:24;;;;;;;9.40;5.22;;;;;;;3.70;100.00;100866.38;10480931;28;20072;-82
2023/10/23 04:53:25;;;;;;;8.90;3.25;;;;;;;3.61;100.00;100876.03;10480763;28;20051;-82
2023/10/23 04:58:25;;;;;;;14.82;7.35;;;;;;;3.55;100.00;100878.16;10455693;28;20044;-85
2023/10/23 05:03:26;;;;;;;20.35;9.60;;;;;;;3.53;100.00;100875.47;10481376;28;20123;-86
2023/10/23 05:08:26;;;;;;;16.17;7.13;;;;;;;3.47;100.00;100873.31;10479485;28;20049;-85
2023/10/23 05:13:27;;;;;;;20.75;8.57;;;;;;;3.44;100.00;100870.47;10480749;28;20094;-83
2023/10/23 05:18:27;;;;;;;33.03;11.70;;;;;;;3.47;100.00;100864.66;10481894;28;20119;-83
2023/10/23 05:23:28;;;;;;;17.15;8.60;;;;;;;3.45;100.00;100858.47;10464609;28;20469;-86
2023/10/23 05:28:29;;;;;;;13.45;6.88;;;;;;;3.33;100.00;100864.50;10456197;28;20040;-81
2023/10/23 05:33:29;;;;;;;11.38;5.03;;;;;;;3.22;100.00;100860.19;10481164;28;20075;-83
2023/10/23 05:38:31;;;;;;;11.32;6.05;;;;;;;3.16;100.00;100858.00;10441807;28;20115;-83
2023/10/23 05:43:31;;;;;;;14.85;5.80;;;;;;;3.12;100.00;100861.16;10479676;28;20157;-82
2023/10/23 05:48:33;;;;;;;12.48;6.95;;;;;;;3.07;100.00;100862.47;10462287;28;20124;-82
2023/10/23 05:53:34;;;;;;;21.63;8.57;;;;;;;3.11;100.00;100861.94;10480235;28;20126;-83
2023/10/23 05:58:35;;;;;;;9.83;6.17;;;;;;;3.09;100.00;100871.25;10455038;28;20672;-82
2023/10/23 06:03:39;;;;;;;11.38;6.35;;;;;;;3.15;100.00;100868.25;10457834;28;20044;-82
2023/10/23 06:08:40;;;;;;;13.52;8.18;;;;;;;3.17;100.00;100862.41;10444868;28;20037;-82
2023/10/23 06:13:40;;;;;;;18.33;10.73;;;;;;;3.26;100.00;100861.31;10464168;28;20401;-83
2023/10/23 06:18:41;;;;;;;15.70;7.88;;;;;;;3.33;100.00;100863.59;10444802;28;20124;-82
2023/10/23 06:23:41;;;;;;;21.25;9.90;;;;;;;3.41;100.00;100871.94;10460152;28;20123;-81
2023/10/23 06:28:42;;;;;;;25.27;11.35;;;;;;;3.48;100.00;100871.63;10473934;28;20500;-82
2023/10/23 06:33:43;;;;;;;46.88;17.48;;;;;;;3.59;100.00;100868.19;10484509;28;20131;-83
2023/10/23 06:38:44;;;;;;;45.15;14.25;;;;;;;3.83;100.00;100881.16;10430894;28;20045;-83
2023/10/23 06:43:45;;;;;;;32.33;13.05;;;;;;;3.97;100.00;100869.22;10441537;28;20158;-83
2023/10/23 06:48:46;;;;;;;37.97;14.77;;;;;;;4.03;100.00;100872.28;10482317;28;20040;-81
2023/10/23 06:53:46;;;;;;;21.88;11.32;;;;;;;4.18;100.00;100881.97;10465694;28;20512;-81
2023/10/23 06:58:47;;;;;;;30.20;14.50;;;;;;;4.24;100.00;100878.16;10458425;28;20059;-81
2023/10/23 07:03:47;;;;;;;25.75;12.93;;;;;;;4.36;100.00;100883.31;10460890;28;20064;-81
2023/10/23 07:08:48;;;;;;;34.47;13.52;;;;;;;4.50;100.00;100886.00;10485201;28;20048;-84
2023/10/23 07:13:48;;;;;;;25.98;11.95;;;;;;;4.70;100.00;100882.28;10457739;28;20131;-82
2023/10/23 07:18:49;;;;;;;38.72;13.18;;;;;;;4.85;100.00;100882.44;10481295;28;20040;-84
2023/10/23 07:23:50;;;;;;;26.13;11.00;;;;;;;5.00;100.00;100875.75;10457881;28;20083;-82
2023/10/23 07:28:50;;;;;;;25.55;9.20;;;;;;;5.19;100.00;100877.03;10481248;28;20129;-83
2023/10/23 07:33:51;;;;;;;23.45;9.77;;;;;;;5.42;100.00;100876.03;10469216;28;20083;-84
2023/10/23 07:38:51;;;;;;;23.23;11.38;;;;;;;5.64;100.00;100882.69;10480274;28;20397;-83
2023/10/23 07:43:52;;;;;;;32.33;11.05;;;;;;;5.87;100.00;100884.22;10448269;28;20478;-82
2023/10/23 07:48:52;;;;;;;21.42;10.10;;;;;;;6.07;100.00;100876.00;10481937;28;20051;-83
2023/10/23 07:53:53;;;;;;;24.20;11.90;;;;;;;6.27;100.00;100861.69;10479483;28;20134;-83
2023/10/23 07:58:53;;;;;;;25.88;10.45;;;;;;;6.53;100.00;100858.19;10465503;28;20127;-83
2023/10/23 08:03:54;;;;;;;24.00;13.13;;;;;;;6.86;100.00;100844.59;10467860;28;20143;-81
2023/10/23 08:08:54;;;;;;;21.23;10.43;;;;;;;7.15;100.00;100853.31;10467575;28;21214;-84
2023/10/23 08:13:55;;;;;;;22.73;8.98;;;;;;;7.29;100.00;100848.97;10482925;28;20082;-84
2023/10/23 08:18:57;;;;;;;33.00;12.10;;;;;;;7.64;100.00;100847.56;10481666;28;20068;-84
2023/10/23 08:23:57;;;;;;;23.27;10.70;;;;;;;7.99;100.00;100848.72;10483957;28;20055;-84
2023/10/23 08:28:58;;;;;;;25.73;13.00;;;;;;;8.33;100.00;100845.44;10465445;28;20140;-84
2023/10/23 08:33:58;;;;;;;33.25;10.38;;;;;;;8.60;100.00;100850.44;10448066;28;20079;-83
2023/10/23 08:38:59;;;;;;;31.33;13.18;;;;;;;8.88;100.00;100843.19;10466086;28;20119;-83
2023/10/23 08:43:59;;;;;;;23.85;13.65;;;;;;;9.05;100.00;100839.78;10448891;28;20123;-81
2023/10/23 08:49:02;;;;;;;19.90;10.70;;;;;;;9.34;100.00;100823.88;10464050;28;20165;-84
2023/10/23 08:54:12;;;;;;;24.95;11.68;;;;;;;9.53;100.00;100820.47;10480069;28;20380;-84
2023/10/23 08:59:14;;;;;;;25.95;11.23;;;;;;;9.84;100.00;100807.25;10465731;28;20550;-83
2023/10/23 09:04:14;;;;;;;19.98;9.80;;;;;;;10.03;100.00;100810.78;10482051;28;20075;-84
2023/10/23 09:09:15;;;;;;;20.52;9.00;;;;;;;10.31;100.00;100805.97;10482648;28;20484;-84
2023/10/23 09:14:25;;;;;;;20.50;8.77;;;;;;;10.53;100.00;100802.69;10464318;28;20116;-84
2023/10/23 09:19:36;;;;;;;18.77;8.93;;;;;;;10.87;100.00;100805.13;10465662;28;20047;-83
2023/10/23 09:24:36;;;;;;;18.35;8.90;;;;;;;10.95;100.00;100807.19;10441787;28;20162;-84
2023/10/23 09:29:37;;;;;;;15.48;7.72;;;;;;;10.85;100.00;100801.53;10480622;28;20051;-83
2023/10/23 09:34:42;;;;;;;18.73;9.00;;;;;;;11.18;100.00;100792.53;10480169;28;20071;-84
2023/10/23 09:39:42;;;;;;;22.92;7.80;;;;;;;11.24;100.00;100789.25;10482179;28;20056;-83
2023/10/23 09:44:43;;;;;;;18.92;6.20;;;;;;;11.47;100.00;100777.16;10465776;28;20115;-82
2023/10/23 09:49:43;;;;;;;11.30;6.30;;;;;;;11.68;100.00;100771.03;10489713;28;20067;-82
2023/10/23 09:54:43;;;;;;;14.63;7.22;;;;;;;11.73;100.00;100767.75;10471566;28;20502;-83
2023/10/23 09:59:49;;;;;;;12.45;5.18;;;;;;;12.17;100.00;100757.31;10488181;28;20120;-83
2023/10/23 10:04:49;;;;;;;6.65;4.22;;;;;;;12.91;100.00;100739.94;10471314;28;20049;-80
2023/10/23 10:09:50;;;;;;;18.25;4.32;;;;;;;13.32;100.00;100710.66;10491245;28;20045;-83
2023/10/23 10:14:50;;;;;;;10.23;3.78;;;;;;;13.31;100.00;100687.84;10486978;28;20119;-83
2023/10/23 10:19:51;;;;;;;4.80;2.95;;;;;;;13.60;100.00;100614.31;10471469;28;20399;-83
2023/10/23 10:24:52;;;;;;;10.73;3.33;;;;;;;14.08;100.00;100524.56;10470069;28;20502;-83
2023/10/23 10:29:52;;;;;;;9.15;2.90;;;;;;;14.13;100.00;100586.94;10468735;28;20048;-82
2023/10/23 10:34:53;;;;;;;11.18;3.45;;;;;;;14.53;100.00;100575.81;10484377;28;20064;-83
2023/10/23 10:39:58;;;;;;;8.57;3.58;;;;;;;14.82;100.00;100611.69;10453183;28;20497;-83
2023/10/23 10:45:09;;;;;;;15.98;4.15;;;;;;;15.04;100.00;100642.13;10487700;28;20496;-83
2023/10/23 10:50:10;;;;;;;9.10;3.33;;;;;;;14.47;100.00;100648.47;10487423;28;20454;-83
2023/10/23 10:55:12;;;;;;;7.00;3.15;;;;;;;14.00;100.00;100643.59;10450562;28;20066;-83
2023/10/23 11:00:13;;;;;;;5.80;2.67;;;;;;;13.82;100.00;100599.22;10471896;28;20136;-82
2023/10/23 11:05:13;;;;;;;8.68;2.85;;;;;;;13.55;100.00;100602.78;10455348;28;20048;-83
2023/10/23 11:10:14;;;;;;;8.77;3.28;;;;;;;13.31;100.00;100577.47;10450934;28;20052;-83
2023/10/23 11:15:15;;;;;;;7.68;3.20;;;;;;;13.32;100.00;100569.66;10427827;28;20460;-84
2023/10/23 11:20:15;;;;;;;12.00;5.32;;;;;;;13.24;100.00;100571.13;10481523;28;20078;-84
2023/10/23 11:25:17;;;;;;;9.65;3.35;;;;;;;12.98;100.00;100565.94;10483951;28;20181;-83
2023/10/23 11:30:18;;;;;;;14.45;4.32;;;;;;;12.83;100.00;100574.19;10450096;28;20033;-84
2023/10/23 11:35:18;;;;;;;10.40;3.90;;;;;;;12.96;100.00;100549.22;10443062;28;20036;-84
2023/10/23 11:40:20;;;;;;;12.80;5.80;;;;;;;13.12;100.00;100553.22;10443121;28;20521;-84
2023/10/23 11:45:21;;;;;;;8.65;6.22;;;;;;;13.28;100.00;100546.75;10444059;28;20115;-84
2023/10/23 11:50:22;;;;;;;13.52;7.78;;;;;;;13.13;100.00;100559.38;10425483;28;20033;-84
2023/10/23 11:55:22;;;;;;;14.57;8.45;;;;;;;12.78;100.00;100562.63;10426539;28;20044;-83
2023/10/23 12:00:23;;;;;;;14.10;10.93;;;;;;;12.48;100.00;100558.09;10442080;28;20087;-82
2023/10/23 12:05:24;;;;;;;14.27;9.38;;;;;;;12.53;100.00;100561.78;10426377;28;20025;-83
2023/10/23 12:10:25;;;;;;;14.80;10.88;;;;;;;12.63;100.00;100556.00;10466314;28;20033;-83
2023/10/23 12:15:27;;;;;;;11.13;9.45;;;;;;;12.61;100.00;100548.94;10482211;28;20044;-84
2023/10/23 12:20:28;;;;;;;13.30;9.97;;;;;;;12.67;100.00;100545.63;10482068;28;20098;-83
2023/10/23 12:25:29;;;;;;;12.83;9.00;;;;;;;12.41;100.00;100549.13;10480427;28;20036;-84
2023/10/23 12:30:29;;;;;;;17.42;11.18;;;;;;;12.36;100.00;100552.44;10466097;28;20116;-83
2023/10/23 12:35:30;;;;;;;12.30;9.25;;;;;;;12.17;100.00;100542.19;10465205;28;20028;-84
2023/10/23 12:40:31;;;;;;;13.05;10.27;;;;;;;12.00;100.00;100531.06;10482308;28;20032;-83
2023/10/23 12:45:31;;;;;;;14.17;10.30;;;;;;;12.26;100.00;100514.50;10464692;28;20047;-82
2023/10/23 12:50:32;;;;;;;12.75;9.38;;;;;;;12.30;100.00;100519.00;10448612;28;20074;-83
2023/10/23 12:55:32;;;;;;;13.15;9.00;;;;;;;12.48;100.00;100510.84;10481831;28;20060;-83
2023/10/23 13:00:33;;;;;;;14.80;9.00;;;;;;;13.06;100.00;100493.50;10481486;28;20136;-84
2023/10/23 13:05:33;;;;;;;14.88;7.97;;;;;;;13.16;100.00;100499.06;10481791;28;20572;-84
2023/10/23 13:10:34;;;;;;;11.15;7.22;;;;;;;13.15;100.00;100482.38;10464488;28;20036;-83
2023/10/23 13:15:34;;;;;;;12.38;6.88;;;;;;;13.12;100.00;100470.91;10464793;28;20060;-83
2023/10/23 13:20:35;;;;;;;10.30;6.47;;;;;;;13.38;100.00;100478.69;10487290;28;20489;-82
2023/10/23 13:25:37;;;;;;;13.25;4.97;;;;;;;13.64;100.00;100469.88;10491998;28;20060;-82
2023/10/23 13:30:37;;;;;;;;;;;;;;;13.91;100.00;100447.81;10491204;28;20159;-81
2023/10/23 13:35:38;;;;;;;9.67;4.40;;;;;;;14.02;100.00;100460.38;10490859;28;20443;-82
2023/10/23 13:40:38;;;;;;;6.40;4.88;;;;;;;13.77;100.00;100460.56;10489720;28;20366;-83
2023/10/23 13:45:39;;;;;;;6.25;3.88;;;;;;;13.48;100.00;100457.13;10471267;28;20542;-81
2023/10/23 13:50:40;;;;;;;9.60;4.13;;;;;;;12.93;100.00;100436.19;10487833;28;20093;-82
2023/10/23 13:55:41;;;;;;;10.00;5.72;;;;;;;12.52;100.00;100428.75;10488677;28;20040;-82
2023/10/23 14:00:41;;;;;;;8.63;6.47;;;;;;;12.17;100.00;100415.34;10487518;28;20503;-82
2023/10/23 14:05:42;;;;;;;10.70;6.57;;;;;;;11.96;100.00;100400.63;10484611;28;20029;-82
2023/10/23 14:10:42;;;;;;;10.57;5.70;;;;;;;11.79;100.00;100391.28;10487016;28;20500;-81
2023/10/23 14:15:43;;;;;;;10.05;4.68;;;;;;;11.77;100.00;100379.84;10485267;28;20049;-81
2023/10/23 14:20:45;;;;;;;10.45;4.85;;;;;;;11.72;100.00;100366.59;10468077;28;20048;-85
2023/10/23 14:25:45;;;;;;;;;;;;;;;11.65;100.00;100369.84;10487907;28;20033;-83
2023/10/23 14:30:47;;;;;;;9.07;4.70;;;;;;;11.51;100.00;100364.09;10486670;28;19920;-83
2023/10/23 14:35:48;;;;;;;13.10;5.65;;;;;;;11.46;100.00;100345.59;10485974;28;21192;-81
2023/10/23 14:40:55;;;;;;;11.02;2.75;;;;;;;11.36;100.00;100323.41;10485072;28;20123;-81
2023/10/23 14:45:55;;;;;;;6.80;3.20;;;;;;;11.29;100.00;100309.22;10484615;28;20496;-82
2023/10/23 14:50:57;;;;;;;5.35;2.17;;;;;;;11.28;100.00;100303.91;10488524;28;20119;-82
2023/10/23 14:55:57;;;;;;;9.45;2.17;;;;;;;11.15;100.00;100294.72;10464412;28;20127;-81
2023/10/23 15:00:58;;;;;;;15.07;3.53;;;;;;;11.15;100.00;100287.75;10485357;28;20037;-81
2023/10/23 15:05:58;;;;;;;5.05;2.00;;;;;;;11.10;100.00;100291.06;10484559;28;20044;-81
2023/10/23 15:10:59;;;;;;;7.60;3.28;;;;;;;11.00;100.00;100282.84;10482730;28;20045;-81
2023/10/23 15:16:03;;;;;;;4.70;2.15;;;;;;;10.96;100.00;100280.97;10484372;28;20040;-81
2023/10/23 15:21:04;;;;;;;9.93;3.08;;;;;;;11.00;100.00;100272.38;10482521;28;20043;-81
2023/10/23 15:26:04;;;;;;;3.72;2.42;;;;;;;10.85;100.00;100272.69;10482007;28;20047;-82
2023/10/23 15:31:05;;;;;;;7.43;3.00;;;;;;;10.72;100.00;100275.69;10483860;28;20071;-81
2023/10/23 15:36:06;;;;;;;8.68;3.20;;;;;;;10.71;100.00;100277.44;10463587;28;20127;-82
2023/10/23 15:41:07;;;;;;;16.05;2.83;;;;;;;10.71;100.00;100281.75;10479193;28;20082;-81
2023/10/23 15:46:12;;;;;;;8.55;2.15;;;;;;;10.62;100.00;100281.41;10474485;28;20437;-82
2023/10/23 15:51:14;;;;;;;6.70;2.20;;;;;;;10.52;100.00;100294.16;10482579;28;20424;-80
2023/10/23 15:56:15;;;;;;;6.78;2.55;;;;;;;10.43;100.00;100306.88;10481586;28;20116;-81
2023/10/23 16:01:15;;;;;;;9.90;3.35;;;;;;;10.34;100.00;100312.63;10483185;28;20480;-80
2023/10/23 16:06:16;;;;;;;5.88;2.42;;;;;;;10.26;100.00;100316.66;10445389;28;20044;-81
2023/10/23 16:11:19;;;;;;;7.88;2.97;;;;;;;10.14;100.00;100322.25;10460934;28;20111;-77
2023/10/23 16:16:19;;;;;;;11.45;4.40;;;;;;;10.09;100.00;100329.94;10459405;28;20045;-78
2023/10/23 16:21:20;;;;;;;8.27;3.78;;;;;;;10.04;100.00;100304.41;10482076;28;20119;-78
2023/10/23 16:26:20;;;;;;;12.88;5.18;;;;;;;9.92;100.00;100304.81;10462719;28;20046;-79
2023/10/23 16:31:21;;;;;;;10.95;3.78;;;;;;;9.88;100.00;100301.16;10464268;28;20127;-79
2023/10/23 16:36:21;;;;;;;5.50;3.60;;;;;;;9.85;100.00;100295.81;10464734;28;20082;-78
2023/10/23 16:41:22;;;;;;;5.65;3.42;;;;;;;9.82;100.00;100286.16;10458080;28;20167;-77
2023/10/23 16:46:22;;;;;;;11.95;4.60;;;;;;;9.81;100.00;100273.00;10477008;28;20375;-77
2023/10/23 16:51:23;;;;;;;15.85;4.68;;;;;;;9.77;100.00;100261.53;10479088;28;20048;-76
2023/10/23 16:56:23;;;;;;;10.43;4.70;;;;;;;9.77;100.00;100238.03;10465310;28;20138;-76
2023/10/23 17:01:24;;;;;;;12.63;5.30;;;;;;;9.77;100.00;100230.19;10472164;28;20163;-76
2023/10/23 17:06:26;;;;;;;13.13;6.15;;;;;;;9.78;100.00;100217.97;10476497;28;20064;-76
2023/10/23 17:11:30;;;;;;;9.63;5.38;;;;;;;9.70;100.00;100210.72;10477068;28;20045;-76
2023/10/23 17:16:30;;;;;;;13.10;6.05;;;;;;;9.72;100.00;100205.59;10457830;28;20420;-76
2023/10/23 17:21:31;;;;;;;12.10;5.95;;;;;;;9.78;100.00;100203.22;10480675;28;20072;-76
2023/10/23 17:26:32;;;;;;;9.73;5.40;;;;;;;9.78;100.00;100204.91;10449644;28;20040;-75
2023/10/23 17:31:32;;;;;;;9.98;5.95;;;;;;;9.84;100.00;100215.63;10475421;28;20400;-75
2023/10/23 17:36:34;;;;;;;12.13;4.35;;;;;;;9.78;100.00;100218.91;10467316;28;20515;-77
2023/10/23 17:41:35;;;;;;;14.57;9.90;;;;;;;9.70;100.00;100213.34;10473539;28;20071;-79
2023/10/23 17:46:37;;;;;;;12.57;5.30;;;;;;;9.67;100.00;100217.56;10479581;28;20751;-79
2023/10/23 17:51:38;;;;;;;15.52;5.55;;;;;;;9.70;100.00;100199.41;10459624;28;20037;-76
2023/10/23 17:56:40;;;;;;;19.98;5.40;;;;;;;9.75;100.00;100189.13;10476704;28;20144;-77
2023/10/23 18:01:43;;;;;;;17.13;6.13;;;;;;;9.65;100.00;100169.59;10477243;28;20139;-77
2023/10/23 18:06:43;;;;;;;14.90;6.32;;;;;;;9.66;100.00;100166.13;10479308;28;20435;-77
2023/10/23 18:11:44;;;;;;;10.98;5.00;;;;;;;9.64;100.00;100171.28;10486634;28;20119;-77
2023/10/23 18:16:44;;;;;;;10.55;5.15;;;;;;;9.65;100.00;100172.19;10480225;28;20378;-77
2023/10/23 18:21:45;;;;;;;11.52;5.35;;;;;;;9.66;100.00;100169.63;10455406;28;20036;-77
2023/10/23 18:26:48;;;;;;;11.45;5.45;;;;;;;9.62;100.00;100170.34;10479462;28;20119;-75
2023/10/23 18:31:49;;;;;;;12.57;5.97;;;;;;;9.67;100.00;100160.97;10475427;28;20431;-76
2023/10/23 18:36:50;;;;;;;13.80;6.72;;;;;;;9.77;100.00;100148.25;10484401;28;20123;-77
2023/10/23 18:41:51;;;;;;;11.23;5.82;;;;;;;9.69;100.00;100145.34;10480394;28;20123;-76
2023/10/23 18:46:52;;;;;;;12.85;6.30;;;;;;;9.69;100.00;100143.63;10491451;28;20527;-78
2023/10/23 18:51:53;;;;;;;10.90;5.63;;;;;;;9.70;100.00;100134.94;10482174;28;20052;-77
2023/10/23 18:56:55;;;;;;;14.35;7.55;;;;;;;9.78;100.00;100127.44;10463357;28;20079;-77
2023/10/23 19:01:56;;;;;;;12.27;6.97;;;;;;;9.76;100.00;100122.94;10480607;28;20052;-76
2023/10/23 19:06:56;;;;;;;17.25;9.02;;;;;;;9.79;100.00;100110.00;10480949;28;20435;-77
2023/10/23 19:11:57;;;;;;;15.38;8.73;;;;;;;9.78;100.00;100116.97;10479473;28;20060;-76
2023/10/23 19:17:00;;;;;;;18.45;7.13;;;;;;;9.82;100.00;100103.19;10478017;28;20068;-78
2023/10/23 19:22:02;;;;;;;18.63;9.25;;;;;;;9.82;100.00;100092.75;10481646;28;20109;-79
2023/10/23 19:27:04;;;;;;;10.50;6.82;;;;;;;9.91;100.00;100086.09;10486720;28;20047;-77
2023/10/23 19:32:05;;;;;;;16.48;8.93;;;;;;;9.89;100.00;100072.06;10482454;28;20059;-77
2023/10/23 19:37:07;;;;;;;27.92;11.50;;;;;;;9.93;100.00;100053.91;10484256;28;20067;-77
2023/10/23 19:42:07;;;;;;;23.70;8.93;;;;;;;9.86;100.00;100037.97;10485123;28;20135;-78
2023/10/23 19:47:08;;;;;;;15.18;7.03;;;;;;;9.83;100.00;100034.41;10468245;28;20051;-77
2023/10/23 19:52:10;;;;;;;17.55;8.10;;;;;;;9.90;100.00;100035.50;10482603;28;20554;-76
2023/10/23 19:57:11;;;;;;;23.42;10.05;;;;;;;9.87;100.00;100030.16;10484908;28;20731;-76
2023/10/23 20:02:11;;;;;;;20.55;9.25;;;;;;;9.85;100.00;100024.00;10480499;28;20067;-77
2023/10/23 20:07:11;;;;;;;15.90;8.45;;;;;;;9.92;100.00;100018.16;10472833;28;20607;-76
2023/10/23 20:12:12;;;;;;;12.82;8.30;;;;;;;9.84;100.00;100019.59;10483743;28;20048;-77
2023/10/23 20:17:25;;;;;;;15.52;9.00;;;;;;;9.84;100.00;100009.16;10482576;28;20044;-76
2023/10/23 20:22:25;;;;;;;24.17;8.65;;;;;;;9.84;100.00;99999.59;10480956;28;20453;-76
2023/10/23 20:27:26;;;;;;;13.20;7.72;;;;;;;9.80;100.00;99995.09;10482967;28;20110;-78
2023/10/23 20:32:26;;;;;;;15.27;8.10;;;;;;;9.81;100.00;99994.25;10481889;28;20063;-77
2023/10/23 20:37:27;;;;;;;28.15;10.32;;;;;;;9.81;100.00;99980.28;10480545;28;20135;-76
2023/10/23 20:42:31;;;;;;;18.58;8.65;;;;;;;9.82;100.00;99969.00;10464811;28;20121;-77
2023/10/23 20:47:32;;;;;;;16.45;9.80;;;;;;;9.83;100.00;99961.22;10459707;28;20041;-77
2023/10/23 20:52:32;;;;;;;14.15;9.77;;;;;;;9.82;100.00;99956.84;10475479;28;20028;-77
2023/10/23 20:57:33;;;;;;;22.55;9.10;;;;;;;9.82;100.00;99956.84;10455857;28;20790;-77
2023/10/23 21:02:35;;;;;;;19.55;11.57;;;;;;;9.80;100.00;99942.84;10465491;28;20165;-78
2023/10/23 21:07:35;;;;;;;17.23;9.93;;;;;;;9.82;100.00;99935.03;10434532;28;20174;-78
2023/10/23 21:12:36;;;;;;;18.20;11.55;;;;;;;9.86;100.00;99923.84;10477547;28;20086;-78
2023/10/23 21:17:37;;;;;;;18.25;9.68;;;;;;;9.81;100.00;99909.72;10475463;28;20472;-78
2023/10/23 21:22:37;;;;;;;15.43;9.38;;;;;;;9.82;100.00;99909.81;10480705;28;20115;-78
2023/10/23 21:27:38;;;;;;;18.85;10.27;;;;;;;9.84;100.00;99905.50;10477829;28;20127;-78
2023/10/23 21:32:38;;;;;;;16.80;10.00;;;;;;;9.88;100.00;99897.78;10477725;28;20044;-77
2023/10/23 21:37:39;;;;;;;19.45;11.05;;;;;;;9.86;100.00;99894.22;10473471;28;20116;-78
2023/10/23 21:42:39;;;;;;;23.10;10.60;;;;;;;9.86;100.00;99887.25;10486919;28;20127;-77
2023/10/23 21:47:40;;;;;;;16.02;10.77;;;;;;;9.88;100.00;99875.13;10479086;28;20045;-78
2023/10/23 21:52:40;;;;;;;19.13;11.30;;;;;;;9.84;100.00;99873.25;10485297;28;20063;-77
2023/10/23 21:57:41;;;;;;;20.80;12.10;;;;;;;9.79;100.00;99865.28;10483013;28;20121;-77
2023/10/23 22:02:42;;;;;;;20.88;12.25;;;;;;;9.87;100.00;99856.81;10487884;28;20032;-78
2023/10/23 22:07:43;;;;;;;20.10;11.20;;;;;;;9.82;100.00;99856.63;10488526;28;20045;-77
2023/10/23 22:12:43;;;;;;;17.10;12.20;;;;;;;9.84;100.00;99847.13;10487543;28;20047;-79
2023/10/23 22:17:44;;;;;;;28.17;15.00;;;;;;;9.83;100.00;99841.03;10487145;28;20190;-78
2023/10/23 22:22:44;;;;;;;22.65;13.27;;;;;;;9.89;100.00;99839.44;10470928;28;20124;-79
2023/10/23 22:27:45;;;;;;;22.80;13.23;;;;;;;9.93;100.00;99831.75;10462677;28;20611;-78
2023/10/23 22:32:45;;;;;;;28.83;13.20;;;;;;;9.91;100.00;99824.72;10471818;28;20116;-78
2023/10/23 22:37:46;;;;;;;26.30;12.55;;;;;;;9.89;100.00;99839.44;10460977;28;20064;-78
2023/10/23 22:42:46;;;;;;;19.23;12.15;;;;;;;9.99;100.00;99831.09;10487925;28;20487;-78